Airfield :
LOGIN :

Register | Disclaimer

   EN    FR    IT 

 










Legend :    VFR   Marginal VFR   IFR   Intensive IFR   Very Intensive IFR
Visi :
Ceiling :
>= 8 km
>= 3000ft
5 to 8 km
1000 to 3000 ft
1500m to 5 km
500 to 1000 ft
800 to 1500m
200 to 500 ft
< 800m
< 200 ft
Symbols :   Thunderstorms  Fog  Heavy snow  Heavy precipitations  Wind > 20 kt
SIGMETs :     Misc.  Thunderstorms  Icing  Turbulence  Mountain Waves  Volcanic Ashes







- Airport Elevation : 146 ft
- IATA code : RKE


EKRK - Roskilde Tune

CURRENT METAR :
  • 232020Z AUTO 19005KT 9999 BKN090/// 14/09 Q1014

EXPIRED METARs :
  • 231950Z AUTO 20004KT 9999 SCT090/// 13/09 Q1015
  • 231920Z AUTO 21005KT 9999 SCT087/// 13/09 Q1015
  • 231850Z AUTO 20006KT 9999 NCD 15/09 Q1015
  • 231820Z AUTO 22007KT 9999 NCD 16/09 Q1015
  • 231750Z AUTO 22008KT 9999 NCD 17/09 Q1015

TAF TAF EKRK
Valid from the 23 at 21:00 until the 24 at 06:00 UTC


232012Z 2321/2406 22008KT 9999 SCT030
No reported NOTAMs for that airfield.



MET'MAP, your aeronautical weather chart ! - Copyright ORBIFLY December 2007 - Disclaimer

ORBIFLY MET'MAP TEAM :

Programming & Development : Alexandra Zaïnal
Concept & Development : Baudouin d'Aumeries
Co-Development & Prog : Marc-Olivier Méhu
Technical & hardware support : Manuel Goepfert

Contact : metmap@orbifly.com




SOURCES & CREDITS :

   NOAA